sensor_id;sensor_type;location;lat;lon;timestamp;P1;durP1;ratioP1;P2;durP2;ratioP2
38859;SDS011;24609;48.316;16.174;2024-02-04T00:00:47;8.00;;;7.22;;
38859;SDS011;24609;48.316;16.174;2024-02-04T00:03:13;8.57;;;6.85;;
38859;SDS011;24609;48.316;16.174;2024-02-04T00:05:39;7.82;;;6.90;;
38859;SDS011;24609;48.316;16.174;2024-02-04T00:08:04;7.82;;;7.03;;
38859;SDS011;24609;48.316;16.174;2024-02-04T00:10:30;7.63;;;6.82;;
38859;SDS011;24609;48.316;16.174;2024-02-04T00:12:56;8.23;;;6.78;;
38859;SDS011;24609;48.316;16.174;2024-02-04T00:15:22;7.53;;;6.72;;
38859;SDS011;24609;48.316;16.174;2024-02-04T00:17:47;6.72;;;6.10;;
38859;SDS011;24609;48.316;16.174;2024-02-04T00:20:13;7.15;;;6.43;;
38859;SDS011;24609;48.316;16.174;2024-02-04T00:22:39;6.68;;;6.05;;
38859;SDS011;24609;48.316;16.174;2024-02-04T00:25:04;7.25;;;6.32;;
38859;SDS011;24609;48.316;16.174;2024-02-04T00:27:31;8.02;;;6.45;;
38859;SDS011;24609;48.316;16.174;2024-02-04T00:29:57;7.63;;;6.13;;
38859;SDS011;24609;48.316;16.174;2024-02-04T00:32:24;7.30;;;5.97;;
38859;SDS011;24609;48.316;16.174;2024-02-04T00:34:50;6.78;;;6.07;;
38859;SDS011;24609;48.316;16.174;2024-02-04T00:37:15;7.05;;;5.90;;
38859;SDS011;24609;48.316;16.174;2024-02-04T00:39:41;7.20;;;6.43;;
38859;SDS011;24609;48.316;16.174;2024-02-04T00:42:07;7.70;;;6.90;;
38859;SDS011;24609;48.316;16.174;2024-02-04T00:44:32;6.60;;;5.90;;
38859;SDS011;24609;48.316;16.174;2024-02-04T00:46:58;8.70;;;6.90;;
38859;SDS011;24609;48.316;16.174;2024-02-04T00:49:24;7.20;;;6.47;;
38859;SDS011;24609;48.316;16.174;2024-02-04T00:51:51;10.27;;;6.72;;
38859;SDS011;24609;48.316;16.174;2024-02-04T00:54:17;7.43;;;6.57;;
38859;SDS011;24609;48.316;16.174;2024-02-04T00:56:43;6.97;;;6.13;;
38859;SDS011;24609;48.316;16.174;2024-02-04T00:59:08;6.70;;;6.00;;
38859;SDS011;24609;48.316;16.174;2024-02-04T01:01:34;6.57;;;5.90;;
38859;SDS011;24609;48.316;16.174;2024-02-04T01:04:00;6.53;;;5.93;;
38859;SDS011;24609;48.316;16.174;2024-02-04T01:06:26;6.78;;;6.07;;
38859;SDS011;24609;48.316;16.174;2024-02-04T01:08:53;6.97;;;6.10;;
38859;SDS011;24609;48.316;16.174;2024-02-04T01:11:18;7.18;;;5.60;;
38859;SDS011;24609;48.316;16.174;2024-02-04T01:13:44;6.88;;;5.90;;
38859;SDS011;24609;48.316;16.174;2024-02-04T01:16:10;7.00;;;5.60;;
38859;SDS011;24609;48.316;16.174;2024-02-04T01:18:35;6.18;;;5.57;;
38859;SDS011;24609;48.316;16.174;2024-02-04T01:21:01;6.85;;;6.15;;
38859;SDS011;24609;48.316;16.174;2024-02-04T01:23:27;6.50;;;5.82;;
38859;SDS011;24609;48.316;16.174;2024-02-04T01:25:52;6.05;;;5.45;;
38859;SDS011;24609;48.316;16.174;2024-02-04T01:28:18;5.85;;;5.18;;
38859;SDS011;24609;48.316;16.174;2024-02-04T01:30:44;5.75;;;5.15;;
38859;SDS011;24609;48.316;16.174;2024-02-04T01:33:10;6.40;;;5.53;;
38859;SDS011;24609;48.316;16.174;2024-02-04T01:35:35;5.50;;;5.00;;
38859;SDS011;24609;48.316;16.174;2024-02-04T01:38:01;5.60;;;4.95;;
38859;SDS011;24609;48.316;16.174;2024-02-04T01:40:27;5.40;;;4.88;;
38859;SDS011;24609;48.316;16.174;2024-02-04T01:42:52;6.03;;;5.10;;
38859;SDS011;24609;48.316;16.174;2024-02-04T01:45:18;7.20;;;5.15;;
38859;SDS011;24609;48.316;16.174;2024-02-04T01:47:43;6.70;;;5.18;;
38859;SDS011;24609;48.316;16.174;2024-02-04T01:50:09;6.80;;;5.82;;
38859;SDS011;24609;48.316;16.174;2024-02-04T01:52:36;7.13;;;5.70;;
38859;SDS011;24609;48.316;16.174;2024-02-04T01:55:04;6.22;;;5.63;;
38859;SDS011;24609;48.316;16.174;2024-02-04T01:57:31;8.40;;;5.85;;
38859;SDS011;24609;48.316;16.174;2024-02-04T01:59:57;7.28;;;6.32;;
38859;SDS011;24609;48.316;16.174;2024-02-04T02:02:25;7.25;;;6.45;;
38859;SDS011;24609;48.316;16.174;2024-02-04T02:04:51;7.53;;;6.72;;
38859;SDS011;24609;48.316;16.174;2024-02-04T02:07:17;7.25;;;6.53;;
38859;SDS011;24609;48.316;16.174;2024-02-04T02:09:45;7.50;;;6.70;;
38859;SDS011;24609;48.316;16.174;2024-02-04T02:12:15;7.70;;;6.97;;
38859;SDS011;24609;48.316;16.174;2024-02-04T02:14:45;8.70;;;7.18;;
38859;SDS011;24609;48.316;16.174;2024-02-04T02:17:15;8.98;;;7.97;;
38859;SDS011;24609;48.316;16.174;2024-02-04T02:22:25;8.73;;;7.93;;
38859;SDS011;24609;48.316;16.174;2024-02-04T02:25:03;9.27;;;8.20;;
38859;SDS011;24609;48.316;16.174;2024-02-04T02:27:30;9.05;;;8.15;;
38859;SDS011;24609;48.316;16.174;2024-02-04T02:29:55;9.43;;;8.43;;
38859;SDS011;24609;48.316;16.174;2024-02-04T02:32:21;9.13;;;8.05;;
38859;SDS011;24609;48.316;16.174;2024-02-04T02:34:48;9.00;;;8.10;;
38859;SDS011;24609;48.316;16.174;2024-02-04T02:37:22;9.23;;;8.32;;
38859;SDS011;24609;48.316;16.174;2024-02-04T02:40:00;9.88;;;8.88;;
38859;SDS011;24609;48.316;16.174;2024-02-04T02:42:31;9.55;;;8.57;;
38859;SDS011;24609;48.316;16.174;2024-02-04T02:44:58;8.45;;;7.47;;
38859;SDS011;24609;48.316;16.174;2024-02-04T02:47:25;8.77;;;7.88;;
38859;SDS011;24609;48.316;16.174;2024-02-04T02:49:54;8.55;;;7.57;;
38859;SDS011;24609;48.316;16.174;2024-02-04T02:52:20;9.38;;;7.40;;
38859;SDS011;24609;48.316;16.174;2024-02-04T02:54:46;8.02;;;7.22;;
38859;SDS011;24609;48.316;16.174;2024-02-04T02:57:12;7.85;;;7.05;;
38859;SDS011;24609;48.316;16.174;2024-02-04T02:59:38;7.60;;;6.72;;
38859;SDS011;24609;48.316;16.174;2024-02-04T03:02:03;7.80;;;6.57;;
38859;SDS011;24609;48.316;16.174;2024-02-04T03:04:29;7.40;;;5.95;;
38859;SDS011;24609;48.316;16.174;2024-02-04T03:06:55;6.95;;;6.03;;
38859;SDS011;24609;48.316;16.174;2024-02-04T03:09:20;7.03;;;6.32;;
38859;SDS011;24609;48.316;16.174;2024-02-04T03:11:46;7.97;;;6.70;;
38859;SDS011;24609;48.316;16.174;2024-02-04T03:14:14;7.00;;;6.10;;
38859;SDS011;24609;48.316;16.174;2024-02-04T03:16:43;7.55;;;6.32;;
38859;SDS011;24609;48.316;16.174;2024-02-04T03:19:11;7.13;;;6.20;;
38859;SDS011;24609;48.316;16.174;2024-02-04T03:21:37;7.15;;;6.45;;
38859;SDS011;24609;48.316;16.174;2024-02-04T03:24:03;7.10;;;6.10;;
38859;SDS011;24609;48.316;16.174;2024-02-04T03:26:29;6.55;;;5.85;;
38859;SDS011;24609;48.316;16.174;2024-02-04T03:28:54;6.10;;;5.50;;
38859;SDS011;24609;48.316;16.174;2024-02-04T03:31:20;5.63;;;5.13;;
38859;SDS011;24609;48.316;16.174;2024-02-04T03:33:47;5.57;;;5.03;;
38859;SDS011;24609;48.316;16.174;2024-02-04T03:36:15;5.70;;;4.82;;
38859;SDS011;24609;48.316;16.174;2024-02-04T03:38:43;6.30;;;5.22;;
38859;SDS011;24609;48.316;16.174;2024-02-04T03:41:09;5.60;;;4.70;;
38859;SDS011;24609;48.316;16.174;2024-02-04T03:43:38;6.47;;;5.85;;
38859;SDS011;24609;48.316;16.174;2024-02-04T03:46:03;6.60;;;5.75;;
38859;SDS011;24609;48.316;16.174;2024-02-04T03:48:29;6.70;;;6.10;;
38859;SDS011;24609;48.316;16.174;2024-02-04T03:50:55;6.97;;;6.18;;
38859;SDS011;24609;48.316;16.174;2024-02-04T03:53:20;7.35;;;6.22;;
38859;SDS011;24609;48.316;16.174;2024-02-04T03:55:48;7.60;;;6.18;;
38859;SDS011;24609;48.316;16.174;2024-02-04T03:58:14;7.68;;;6.88;;
38859;SDS011;24609;48.316;16.174;2024-02-04T04:00:40;7.13;;;6.43;;
38859;SDS011;24609;48.316;16.174;2024-02-04T04:03:05;8.10;;;6.47;;
38859;SDS011;24609;48.316;16.174;2024-02-04T04:05:31;8.05;;;7.03;;
38859;SDS011;24609;48.316;16.174;2024-02-04T04:07:57;7.10;;;6.40;;
38859;SDS011;24609;48.316;16.174;2024-02-04T04:10:22;8.18;;;6.93;;
38859;SDS011;24609;48.316;16.174;2024-02-04T04:12:48;8.75;;;6.82;;
38859;SDS011;24609;48.316;16.174;2024-02-04T04:15:14;9.32;;;6.72;;
38859;SDS011;24609;48.316;16.174;2024-02-04T04:17:40;7.75;;;6.72;;
38859;SDS011;24609;48.316;16.174;2024-02-04T04:20:06;6.97;;;6.25;;
38859;SDS011;24609;48.316;16.174;2024-02-04T04:22:32;7.70;;;6.85;;
38859;SDS011;24609;48.316;16.174;2024-02-04T04:24:58;7.18;;;6.47;;
38859;SDS011;24609;48.316;16.174;2024-02-04T04:27:23;7.43;;;6.63;;
38859;SDS011;24609;48.316;16.174;2024-02-04T04:29:49;7.68;;;6.88;;
38859;SDS011;24609;48.316;16.174;2024-02-04T04:32:15;7.90;;;6.55;;
38859;SDS011;24609;48.316;16.174;2024-02-04T04:34:41;7.93;;;6.75;;
38859;SDS011;24609;48.316;16.174;2024-02-04T04:37:06;7.97;;;6.30;;
38859;SDS011;24609;48.316;16.174;2024-02-04T04:39:32;6.90;;;6.20;;
38859;SDS011;24609;48.316;16.174;2024-02-04T04:41:58;7.68;;;6.40;;
38859;SDS011;24609;48.316;16.174;2024-02-04T04:44:23;6.68;;;6.00;;
38859;SDS011;24609;48.316;16.174;2024-02-04T04:46:49;7.88;;;6.07;;
38859;SDS011;24609;48.316;16.174;2024-02-04T04:49:15;6.63;;;5.72;;
38859;SDS011;24609;48.316;16.174;2024-02-04T04:51:44;6.22;;;5.25;;
38859;SDS011;24609;48.316;16.174;2024-02-04T04:54:11;6.28;;;5.47;;
38859;SDS011;24609;48.316;16.174;2024-02-04T04:56:40;5.60;;;5.00;;
38859;SDS011;24609;48.316;16.174;2024-02-04T04:59:06;4.47;;;4.07;;
38859;SDS011;24609;48.316;16.174;2024-02-04T05:01:32;5.00;;;4.18;;
38859;SDS011;24609;48.316;16.174;2024-02-04T05:03:58;5.32;;;4.60;;
38859;SDS011;24609;48.316;16.174;2024-02-04T05:06:24;4.97;;;4.47;;
38859;SDS011;24609;48.316;16.174;2024-02-04T05:08:50;6.72;;;4.70;;
38859;SDS011;24609;48.316;16.174;2024-02-04T05:11:16;4.65;;;4.13;;
38859;SDS011;24609;48.316;16.174;2024-02-04T05:13:41;5.50;;;4.53;;
38859;SDS011;24609;48.316;16.174;2024-02-04T05:16:07;5.35;;;4.72;;
38859;SDS011;24609;48.316;16.174;2024-02-04T05:18:33;4.55;;;4.10;;
38859;SDS011;24609;48.316;16.174;2024-02-04T05:21:00;5.05;;;4.40;;
38859;SDS011;24609;48.316;16.174;2024-02-04T05:23:27;6.63;;;4.90;;
38859;SDS011;24609;48.316;16.174;2024-02-04T05:25:53;6.45;;;4.25;;
38859;SDS011;24609;48.316;16.174;2024-02-04T05:28:18;5.40;;;4.40;;
38859;SDS011;24609;48.316;16.174;2024-02-04T05:30:44;4.93;;;4.10;;
38859;SDS011;24609;48.316;16.174;2024-02-04T05:33:13;4.97;;;4.45;;
38859;SDS011;24609;48.316;16.174;2024-02-04T05:35:39;5.72;;;5.05;;
38859;SDS011;24609;48.316;16.174;2024-02-04T05:38:07;6.28;;;4.55;;
38859;SDS011;24609;48.316;16.174;2024-02-04T05:40:34;4.43;;;3.83;;
38859;SDS011;24609;48.316;16.174;2024-02-04T05:43:00;4.80;;;4.30;;
38859;SDS011;24609;48.316;16.174;2024-02-04T05:45:31;5.20;;;4.57;;
38859;SDS011;24609;48.316;16.174;2024-02-04T05:47:57;6.45;;;4.25;;
38859;SDS011;24609;48.316;16.174;2024-02-04T05:50:22;5.55;;;4.95;;
38859;SDS011;24609;48.316;16.174;2024-02-04T05:52:48;5.82;;;4.50;;
38859;SDS011;24609;48.316;16.174;2024-02-04T05:55:14;5.18;;;4.68;;
38859;SDS011;24609;48.316;16.174;2024-02-04T05:57:40;6.50;;;4.93;;
38859;SDS011;24609;48.316;16.174;2024-02-04T06:00:06;5.30;;;4.25;;
38859;SDS011;24609;48.316;16.174;2024-02-04T06:02:35;5.50;;;4.63;;
38859;SDS011;24609;48.316;16.174;2024-02-04T06:05:01;5.45;;;4.90;;
38859;SDS011;24609;48.316;16.174;2024-02-04T06:07:27;5.32;;;4.82;;
38859;SDS011;24609;48.316;16.174;2024-02-04T06:09:53;6.50;;;5.38;;
38859;SDS011;24609;48.316;16.174;2024-02-04T06:12:21;5.90;;;5.30;;
38859;SDS011;24609;48.316;16.174;2024-02-04T06:14:47;6.00;;;5.15;;
38859;SDS011;24609;48.316;16.174;2024-02-04T06:17:12;5.88;;;5.20;;
38859;SDS011;24609;48.316;16.174;2024-02-04T06:19:38;7.55;;;5.72;;
38859;SDS011;24609;48.316;16.174;2024-02-04T06:22:04;6.00;;;5.35;;
38859;SDS011;24609;48.316;16.174;2024-02-04T06:24:30;6.00;;;5.40;;
38859;SDS011;24609;48.316;16.174;2024-02-04T06:26:55;7.20;;;6.05;;
38859;SDS011;24609;48.316;16.174;2024-02-04T06:29:21;7.18;;;6.18;;
38859;SDS011;24609;48.316;16.174;2024-02-04T06:31:47;7.90;;;7.07;;
38859;SDS011;24609;48.316;16.174;2024-02-04T06:34:12;6.35;;;5.65;;
38859;SDS011;24609;48.316;16.174;2024-02-04T06:36:41;6.00;;;5.40;;
38859;SDS011;24609;48.316;16.174;2024-02-04T06:39:08;5.53;;;4.97;;
38859;SDS011;24609;48.316;16.174;2024-02-04T06:41:34;5.88;;;5.25;;
38859;SDS011;24609;48.316;16.174;2024-02-04T06:44:00;5.50;;;5.00;;
38859;SDS011;24609;48.316;16.174;2024-02-04T06:46:28;5.97;;;5.28;;
38859;SDS011;24609;48.316;16.174;2024-02-04T06:48:54;6.53;;;5.82;;
38859;SDS011;24609;48.316;16.174;2024-02-04T06:51:20;5.82;;;5.25;;
38859;SDS011;24609;48.316;16.174;2024-02-04T06:53:46;5.75;;;5.25;;
38859;SDS011;24609;48.316;16.174;2024-02-04T06:56:12;5.40;;;4.72;;
38859;SDS011;24609;48.316;16.174;2024-02-04T06:58:38;5.63;;;5.13;;
38859;SDS011;24609;48.316;16.174;2024-02-04T07:01:04;6.22;;;5.63;;
38859;SDS011;24609;48.316;16.174;2024-02-04T07:03:30;6.30;;;5.55;;
38859;SDS011;24609;48.316;16.174;2024-02-04T07:05:57;5.80;;;5.20;;
38859;SDS011;24609;48.316;16.174;2024-02-04T07:08:23;5.55;;;5.05;;
38859;SDS011;24609;48.316;16.174;2024-02-04T07:10:49;5.88;;;5.38;;
38859;SDS011;24609;48.316;16.174;2024-02-04T07:13:15;6.00;;;5.40;;
38859;SDS011;24609;48.316;16.174;2024-02-04T07:15:41;6.32;;;5.57;;
38859;SDS011;24609;48.316;16.174;2024-02-04T07:18:06;6.15;;;5.55;;
38859;SDS011;24609;48.316;16.174;2024-02-04T07:20:32;5.88;;;5.28;;
38859;SDS011;24609;48.316;16.174;2024-02-04T07:22:58;6.00;;;5.40;;
38859;SDS011;24609;48.316;16.174;2024-02-04T07:25:24;7.13;;;5.78;;
38859;SDS011;24609;48.316;16.174;2024-02-04T07:27:49;5.85;;;5.25;;
38859;SDS011;24609;48.316;16.174;2024-02-04T07:30:15;6.75;;;5.45;;
38859;SDS011;24609;48.316;16.174;2024-02-04T07:32:41;6.53;;;5.47;;
38859;SDS011;24609;48.316;16.174;2024-02-04T07:35:07;5.80;;;5.20;;
38859;SDS011;24609;48.316;16.174;2024-02-04T07:37:34;6.15;;;5.53;;
38859;SDS011;24609;48.316;16.174;2024-02-04T07:40:00;5.18;;;4.68;;
38859;SDS011;24609;48.316;16.174;2024-02-04T07:42:26;6.32;;;4.45;;
38859;SDS011;24609;48.316;16.174;2024-02-04T07:44:52;5.65;;;5.05;;
38859;SDS011;24609;48.316;16.174;2024-02-04T07:47:18;5.10;;;4.47;;
38859;SDS011;24609;48.316;16.174;2024-02-04T07:49:46;5.15;;;4.63;;
38859;SDS011;24609;48.316;16.174;2024-02-04T07:52:13;6.63;;;5.20;;
38859;SDS011;24609;48.316;16.174;2024-02-04T07:54:38;4.68;;;3.90;;
38859;SDS011;24609;48.316;16.174;2024-02-04T07:57:04;4.65;;;4.18;;
38859;SDS011;24609;48.316;16.174;2024-02-04T07:59:30;4.60;;;3.85;;
38859;SDS011;24609;48.316;16.174;2024-02-04T08:01:56;4.50;;;3.83;;
38859;SDS011;24609;48.316;16.174;2024-02-04T08:04:21;4.25;;;3.30;;
38859;SDS011;24609;48.316;16.174;2024-02-04T08:06:47;4.95;;;3.40;;
38859;SDS011;24609;48.316;16.174;2024-02-04T08:09:13;3.88;;;3.30;;
38859;SDS011;24609;48.316;16.174;2024-02-04T08:11:39;3.40;;;3.03;;
38859;SDS011;24609;48.316;16.174;2024-02-04T08:14:05;3.60;;;2.97;;
38859;SDS011;24609;48.316;16.174;2024-02-04T08:16:31;3.60;;;3.03;;
38859;SDS011;24609;48.316;16.174;2024-02-04T08:18:57;3.70;;;2.90;;
38859;SDS011;24609;48.316;16.174;2024-02-04T08:21:23;4.18;;;2.72;;
38859;SDS011;24609;48.316;16.174;2024-02-04T08:23:49;3.17;;;2.78;;
38859;SDS011;24609;48.316;16.174;2024-02-04T08:26:15;6.15;;;4.78;;
38859;SDS011;24609;48.316;16.174;2024-02-04T08:28:41;3.10;;;2.80;;
38859;SDS011;24609;48.316;16.174;2024-02-04T08:31:06;2.90;;;2.38;;
38859;SDS011;24609;48.316;16.174;2024-02-04T08:33:32;3.03;;;2.42;;
38859;SDS011;24609;48.316;16.174;2024-02-04T08:35:57;2.75;;;2.42;;
38859;SDS011;24609;48.316;16.174;2024-02-04T08:38:23;2.25;;;2.00;;
38859;SDS011;24609;48.316;16.174;2024-02-04T08:40:49;2.40;;;2.00;;
38859;SDS011;24609;48.316;16.174;2024-02-04T08:43:14;2.40;;;1.85;;
38859;SDS011;24609;48.316;16.174;2024-02-04T08:45:41;2.20;;;2.00;;
38859;SDS011;24609;48.316;16.174;2024-02-04T08:48:07;4.47;;;1.88;;
38859;SDS011;24609;48.316;16.174;2024-02-04T08:50:32;1.77;;;1.52;;
38859;SDS011;24609;48.316;16.174;2024-02-04T08:52:58;1.38;;;1.23;;
38859;SDS011;24609;48.316;16.174;2024-02-04T08:55:24;1.70;;;1.50;;
38859;SDS011;24609;48.316;16.174;2024-02-04T08:57:49;2.42;;;1.60;;
38859;SDS011;24609;48.316;16.174;2024-02-04T09:00:15;1.90;;;1.45;;
38859;SDS011;24609;48.316;16.174;2024-02-04T09:02:41;2.03;;;1.85;;
38859;SDS011;24609;48.316;16.174;2024-02-04T09:05:07;1.60;;;1.40;;
38859;SDS011;24609;48.316;16.174;2024-02-04T09:07:33;2.45;;;1.95;;
38859;SDS011;24609;48.316;16.174;2024-02-04T09:09:59;2.30;;;1.83;;
38859;SDS011;24609;48.316;16.174;2024-02-04T09:12:25;2.17;;;1.83;;
38859;SDS011;24609;48.316;16.174;2024-02-04T09:14:50;1.40;;;1.23;;
38859;SDS011;24609;48.316;16.174;2024-02-04T09:17:16;1.73;;;1.55;;
38859;SDS011;24609;48.316;16.174;2024-02-04T09:19:42;2.22;;;1.70;;
38859;SDS011;24609;48.316;16.174;2024-02-04T09:22:07;1.95;;;1.70;;
38859;SDS011;24609;48.316;16.174;2024-02-04T09:24:33;1.70;;;1.40;;
38859;SDS011;24609;48.316;16.174;2024-02-04T09:26:59;2.17;;;1.67;;
38859;SDS011;24609;48.316;16.174;2024-02-04T09:29:24;4.70;;;4.05;;
38859;SDS011;24609;48.316;16.174;2024-02-04T09:31:50;6.57;;;4.60;;
38859;SDS011;24609;48.316;16.174;2024-02-04T09:34:18;2.88;;;2.60;;
38859;SDS011;24609;48.316;16.174;2024-02-04T09:36:44;1.75;;;1.65;;
38859;SDS011;24609;48.316;16.174;2024-02-04T09:39:09;1.85;;;1.60;;
38859;SDS011;24609;48.316;16.174;2024-02-04T09:41:35;2.22;;;2.00;;
38859;SDS011;24609;48.316;16.174;2024-02-04T09:44:01;2.33;;;2.08;;
38859;SDS011;24609;48.316;16.174;2024-02-04T09:46:29;2.30;;;1.70;;
38859;SDS011;24609;48.316;16.174;2024-02-04T09:48:55;2.88;;;2.58;;
38859;SDS011;24609;48.316;16.174;2024-02-04T09:51:21;2.20;;;2.00;;
38859;SDS011;24609;48.316;16.174;2024-02-04T09:53:49;2.55;;;1.90;;
38859;SDS011;24609;48.316;16.174;2024-02-04T09:56:18;2.88;;;2.40;;
38859;SDS011;24609;48.316;16.174;2024-02-04T09:58:47;2.00;;;1.50;;
38859;SDS011;24609;48.316;16.174;2024-02-04T10:01:13;1.90;;;1.67;;
38859;SDS011;24609;48.316;16.174;2024-02-04T10:03:40;2.40;;;1.70;;
38859;SDS011;24609;48.316;16.174;2024-02-04T10:06:06;1.75;;;1.65;;
38859;SDS011;24609;48.316;16.174;2024-02-04T10:08:32;3.05;;;2.28;;
38859;SDS011;24609;48.316;16.174;2024-02-04T10:11:01;4.65;;;2.92;;
38859;SDS011;24609;48.316;16.174;2024-02-04T10:13:26;13.57;;;7.45;;
38859;SDS011;24609;48.316;16.174;2024-02-04T10:15:52;16.27;;;8.63;;
38859;SDS011;24609;48.316;16.174;2024-02-04T10:18:18;3.30;;;2.05;;
38859;SDS011;24609;48.316;16.174;2024-02-04T10:20:43;1.80;;;1.70;;
38859;SDS011;24609;48.316;16.174;2024-02-04T10:23:09;1.20;;;1.10;;
38859;SDS011;24609;48.316;16.174;2024-02-04T10:25:35;1.98;;;1.40;;
38859;SDS011;24609;48.316;16.174;2024-02-04T10:28:01;4.53;;;3.25;;
38859;SDS011;24609;48.316;16.174;2024-02-04T10:30:27;2.25;;;2.03;;
38859;SDS011;24609;48.316;16.174;2024-02-04T10:32:53;3.13;;;2.40;;
38859;SDS011;24609;48.316;16.174;2024-02-04T10:35:22;2.97;;;1.55;;
38859;SDS011;24609;48.316;16.174;2024-02-04T10:37:49;1.95;;;1.45;;
38859;SDS011;24609;48.316;16.174;2024-02-04T10:40:15;1.83;;;1.20;;
38859;SDS011;24609;48.316;16.174;2024-02-04T10:42:44;1.90;;;1.65;;
38859;SDS011;24609;48.316;16.174;2024-02-04T10:45:11;1.60;;;1.40;;
38859;SDS011;24609;48.316;16.174;2024-02-04T10:47:39;1.45;;;1.20;;
38859;SDS011;24609;48.316;16.174;2024-02-04T10:50:06;1.40;;;1.30;;
38859;SDS011;24609;48.316;16.174;2024-02-04T10:52:37;2.03;;;1.52;;
38859;SDS011;24609;48.316;16.174;2024-02-04T10:55:07;3.75;;;1.80;;
38859;SDS011;24609;48.316;16.174;2024-02-04T10:57:37;1.77;;;1.10;;
38859;SDS011;24609;48.316;16.174;2024-02-04T11:00:04;1.75;;;1.20;;
38859;SDS011;24609;48.316;16.174;2024-02-04T11:02:36;1.88;;;1.20;;
38859;SDS011;24609;48.316;16.174;2024-02-04T11:05:04;2.70;;;2.00;;
38859;SDS011;24609;48.316;16.174;2024-02-04T11:07:33;2.10;;;1.83;;
38859;SDS011;24609;48.316;16.174;2024-02-04T11:10:02;3.10;;;1.67;;
38859;SDS011;24609;48.316;16.174;2024-02-04T11:12:29;1.40;;;1.20;;
38859;SDS011;24609;48.316;16.174;2024-02-04T11:14:59;1.33;;;1.00;;
38859;SDS011;24609;48.316;16.174;2024-02-04T11:25:54;3.63;;;2.60;;
38859;SDS011;24609;48.316;16.174;2024-02-04T11:28:21;3.10;;;2.38;;
38859;SDS011;24609;48.316;16.174;2024-02-04T11:30:48;2.55;;;1.20;;
38859;SDS011;24609;48.316;16.174;2024-02-04T11:33:18;2.08;;;1.30;;
38859;SDS011;24609;48.316;16.174;2024-02-04T11:35:46;1.35;;;1.25;;
38859;SDS011;24609;48.316;16.174;2024-02-04T11:38:12;2.10;;;1.08;;
38859;SDS011;24609;48.316;16.174;2024-02-04T11:40:43;1.38;;;1.15;;
38859;SDS011;24609;48.316;16.174;2024-02-04T11:43:11;1.40;;;1.05;;
38859;SDS011;24609;48.316;16.174;2024-02-04T11:45:39;1.15;;;1.05;;
38859;SDS011;24609;48.316;16.174;2024-02-04T11:48:09;2.22;;;1.20;;
38859;SDS011;24609;48.316;16.174;2024-02-04T11:50:35;1.70;;;1.25;;
38859;SDS011;24609;48.316;16.174;2024-02-04T11:53:09;1.45;;;1.10;;
38859;SDS011;24609;48.316;16.174;2024-02-04T11:55:38;1.45;;;1.10;;
38859;SDS011;24609;48.316;16.174;2024-02-04T11:58:05;1.42;;;1.20;;
38859;SDS011;24609;48.316;16.174;2024-02-04T12:00:35;1.42;;;1.10;;
38859;SDS011;24609;48.316;16.174;2024-02-04T12:03:01;2.15;;;1.02;;
38859;SDS011;24609;48.316;16.174;2024-02-04T12:05:30;1.80;;;1.40;;
38859;SDS011;24609;48.316;16.174;2024-02-04T12:07:59;1.60;;;1.08;;
38859;SDS011;24609;48.316;16.174;2024-02-04T12:10:32;1.25;;;1.00;;
38859;SDS011;24609;48.316;16.174;2024-02-04T12:13:03;1.38;;;1.13;;
38859;SDS011;24609;48.316;16.174;2024-02-04T12:15:30;1.15;;;0.88;;
38859;SDS011;24609;48.316;16.174;2024-02-04T12:18:05;1.10;;;1.00;;
38859;SDS011;24609;48.316;16.174;2024-02-04T12:20:31;2.08;;;1.00;;
38859;SDS011;24609;48.316;16.174;2024-02-04T12:22:57;2.30;;;1.10;;
38859;SDS011;24609;48.316;16.174;2024-02-04T12:25:23;1.08;;;0.85;;
38859;SDS011;24609;48.316;16.174;2024-02-04T12:27:51;1.23;;;1.08;;
38859;SDS011;24609;48.316;16.174;2024-02-04T12:30:17;1.70;;;1.02;;
38859;SDS011;24609;48.316;16.174;2024-02-04T12:32:43;0.98;;;0.90;;
38859;SDS011;24609;48.316;16.174;2024-02-04T12:35:13;1.85;;;0.98;;
38859;SDS011;24609;48.316;16.174;2024-02-04T12:37:49;1.40;;;1.10;;
38859;SDS011;24609;48.316;16.174;2024-02-04T12:40:20;2.97;;;1.30;;
38859;SDS011;24609;48.316;16.174;2024-02-04T12:42:51;2.00;;;1.40;;
38859;SDS011;24609;48.316;16.174;2024-02-04T12:45:21;2.72;;;1.25;;
38859;SDS011;24609;48.316;16.174;2024-02-04T12:47:51;1.30;;;1.20;;
38859;SDS011;24609;48.316;16.174;2024-02-04T12:50:18;1.70;;;1.33;;
38859;SDS011;24609;48.316;16.174;2024-02-04T12:52:44;2.63;;;1.25;;
38859;SDS011;24609;48.316;16.174;2024-02-04T12:55:23;2.00;;;1.27;;
38859;SDS011;24609;48.316;16.174;2024-02-04T12:58:00;1.53;;;1.43;;
38859;SDS011;24609;48.316;16.174;2024-02-04T13:00:31;4.87;;;1.53;;
38859;SDS011;24609;48.316;16.174;2024-02-04T13:03:01;2.53;;;1.70;;
38859;SDS011;24609;48.316;16.174;2024-02-04T13:05:28;2.88;;;2.05;;
38859;SDS011;24609;48.316;16.174;2024-02-04T13:07:56;2.63;;;1.77;;
38859;SDS011;24609;48.316;16.174;2024-02-04T13:10:26;3.92;;;1.77;;
38859;SDS011;24609;48.316;16.174;2024-02-04T13:12:58;2.65;;;2.00;;
38859;SDS011;24609;48.316;16.174;2024-02-04T13:15:40;3.17;;;2.47;;
38859;SDS011;24609;48.316;16.174;2024-02-04T13:18:08;2.85;;;1.90;;
38859;SDS011;24609;48.316;16.174;2024-02-04T13:20:36;3.00;;;1.95;;
38859;SDS011;24609;48.316;16.174;2024-02-04T13:23:03;3.22;;;1.52;;
38859;SDS011;24609;48.316;16.174;2024-02-04T13:25:32;2.70;;;2.42;;
38859;SDS011;24609;48.316;16.174;2024-02-04T13:27:58;5.20;;;2.95;;
38859;SDS011;24609;48.316;16.174;2024-02-04T13:30:24;4.45;;;1.70;;
38859;SDS011;24609;48.316;16.174;2024-02-04T13:32:50;1.63;;;1.50;;
38859;SDS011;24609;48.316;16.174;2024-02-04T13:35:16;3.17;;;1.80;;
38859;SDS011;24609;48.316;16.174;2024-02-04T13:37:46;1.90;;;1.70;;
38859;SDS011;24609;48.316;16.174;2024-02-04T13:40:16;2.70;;;2.00;;
38859;SDS011;24609;48.316;16.174;2024-02-04T13:42:44;3.22;;;2.30;;
38859;SDS011;24609;48.316;16.174;2024-02-04T13:45:10;2.22;;;1.48;;
38859;SDS011;24609;48.316;16.174;2024-02-04T13:47:38;2.95;;;1.50;;
38859;SDS011;24609;48.316;16.174;2024-02-04T13:50:05;2.08;;;1.80;;
38859;SDS011;24609;48.316;16.174;2024-02-04T13:52:32;1.63;;;1.52;;
38859;SDS011;24609;48.316;16.174;2024-02-04T13:54:58;1.90;;;1.50;;
38859;SDS011;24609;48.316;16.174;2024-02-04T13:57:23;2.55;;;1.80;;
38859;SDS011;24609;48.316;16.174;2024-02-04T13:59:49;2.70;;;1.80;;
38859;SDS011;24609;48.316;16.174;2024-02-04T14:02:15;2.80;;;2.45;;
38859;SDS011;24609;48.316;16.174;2024-02-04T14:04:41;2.17;;;1.73;;
38859;SDS011;24609;48.316;16.174;2024-02-04T14:07:07;2.65;;;2.10;;
38859;SDS011;24609;48.316;16.174;2024-02-04T14:09:33;2.20;;;1.95;;
38859;SDS011;24609;48.316;16.174;2024-02-04T14:12:01;2.83;;;1.80;;
38859;SDS011;24609;48.316;16.174;2024-02-04T14:14:28;3.55;;;2.22;;
38859;SDS011;24609;48.316;16.174;2024-02-04T14:16:54;2.33;;;2.03;;
38859;SDS011;24609;48.316;16.174;2024-02-04T14:19:20;3.03;;;2.35;;
38859;SDS011;24609;48.316;16.174;2024-02-04T14:21:46;7.72;;;5.53;;
38859;SDS011;24609;48.316;16.174;2024-02-04T14:24:11;3.70;;;2.28;;
38859;SDS011;24609;48.316;16.174;2024-02-04T14:26:38;2.33;;;1.83;;
38859;SDS011;24609;48.316;16.174;2024-02-04T14:29:03;2.05;;;1.88;;
38859;SDS011;24609;48.316;16.174;2024-02-04T14:31:29;2.78;;;2.17;;
38859;SDS011;24609;48.316;16.174;2024-02-04T14:33:55;3.45;;;2.25;;
38859;SDS011;24609;48.316;16.174;2024-02-04T14:36:21;4.75;;;3.97;;
38859;SDS011;24609;48.316;16.174;2024-02-04T14:38:46;2.60;;;2.20;;
38859;SDS011;24609;48.316;16.174;2024-02-04T14:41:12;2.65;;;2.08;;